CheckWX is a tool to help pilots better visualize weather data.  It is not intended as a substitute for an official pre-flight weather briefing.

04:27:41 UTC

KMMI METAR
McMinn County Airport
Athens, Tennessee, USA
Current

33 mins ago

KMMI 270355Z AUTO 00000KT 10SM CLR 21/21 A3023 RMK A01
Observed
Jun-27 @ 03:55 UTC
Visibility
10 SM
Flight Rules
VFR
Cloud Levels
  • Clear skies
Temperature
21°C / 70°F
Dewpoint
21°C / 70°F
Humidity
100%
Altimeter
30.23" Hg
Pressure
1023.72 hPa
Previous

53 mins ago

KMMI 270335Z AUTO 00000KT 10SM CLR 22/21 A3023 RMK A01
Observed
Jun-27 @ 03:35 UTC
Visibility
10 SM
Flight Rules
VFR
Cloud Levels
  • Clear skies
Temperature
22°C / 72°F
Dewpoint
21°C / 70°F
Humidity
94%
Altimeter
30.23" Hg
Pressure
1023.72 hPa
Previous

1 hour ago

KMMI 270315Z AUTO 00000KT 10SM CLR 22/21 A3022 RMK A01
Observed
Jun-27 @ 03:15 UTC
Visibility
10 SM
Flight Rules
VFR
Cloud Levels
  • Clear skies
Temperature
22°C / 72°F
Dewpoint
21°C / 70°F
Humidity
94%
Altimeter
30.22" Hg
Pressure
1023.42 hPa